Time;durP1;ratioP1;P1;durP2;ratioP2;P2;SDS_P1;SDS_P2;PMS_P1;PMS_P2;Temp;Humidity;BMP_temperature;BMP_pressure;BME280_temperature;BME280_humidity;BME280_pressure;Samples;Min_cycle;Max_cycle;Signal;HPM_P1;HPM_P2
2022/10/16 00:01:35;;;;;;;4.35;3.33;;;12.70;99.90;;;;;;5002950;28;90099;-32
2022/10/16 00:04:01;;;;;;;5.40;3.20;;;12.80;99.90;;;;;;5003589;28;90278;-31
2022/10/16 00:06:28;;;;;;;5.05;3.00;;;12.80;99.90;;;;;;5002990;28;90166;-33
2022/10/16 00:08:54;;;;;;;5.40;2.63;;;12.80;99.90;;;;;;5003911;28;89582;-31
2022/10/16 00:11:25;;;;;;;7.45;3.60;;;12.90;99.90;;;;;;5002947;28;91486;-32
2022/10/16 00:13:55;;;;;;;9.02;3.53;;;12.90;99.90;;;;;;4985730;28;89641;-31
2022/10/16 00:16:21;;;;;;;4.63;2.83;;;12.80;99.90;;;;;;5003957;28;88964;-31
2022/10/16 00:18:47;;;;;;;6.82;2.67;;;12.90;99.90;;;;;;5003098;28;87784;-31
2022/10/16 00:21:16;;;;;;;2.97;2.20;;;12.90;99.90;;;;;;5003364;28;91561;-30
2022/10/16 00:23:42;;;;;;;4.05;3.17;;;12.90;99.90;;;;;;5003060;28;89175;-32
2022/10/16 00:26:10;;;;;;;6.25;3.20;;;12.90;99.90;;;;;;5003201;28;90178;-32
2022/10/16 00:28:37;;;;;;;3.22;2.92;;;12.90;99.90;;;;;;5003098;28;88840;-31
2022/10/16 00:31:08;;;;;;;7.30;2.92;;;12.90;99.90;;;;;;5003192;28;91457;-32
2022/10/16 00:33:35;;;;;;;3.17;2.83;;;12.90;99.90;;;;;;5002851;28;88993;-33
2022/10/16 00:36:02;;;;;;;6.30;3.00;;;12.90;99.90;;;;;;5003278;28;88770;-32
2022/10/16 00:38:27;;;;;;;7.30;3.20;;;12.90;99.90;;;;;;5003018;28;90233;-32
2022/10/16 00:40:53;;;;;;;4.97;3.25;;;12.90;99.90;;;;;;5003075;28;90292;-31
2022/10/16 00:43:48;;;;;;;9.18;3.55;;;12.90;99.90;;;;;;5003158;28;89731;-32
2022/10/16 00:46:27;;;;;;;7.57;3.65;;;12.90;99.90;;;;;;4991182;28;90492;-31
2022/10/16 00:49:06;;;;;;;4.07;3.05;;;12.90;99.90;;;;;;5002294;28;89618;-31
2022/10/16 00:51:38;;;;;;;4.47;2.88;;;12.90;99.90;;;;;;4988410;28;90775;-33
2022/10/16 00:54:13;;;;;;;4.15;3.28;;;12.90;99.90;;;;;;5003158;28;89902;-32
2022/10/16 00:56:39;;;;;;;8.07;3.15;;;12.80;99.90;;;;;;5042067;22;88002;-33
2022/10/16 00:59:10;;;;;;;3.95;2.88;;;12.80;99.90;;;;;;5003226;28;89301;-30
2022/10/16 01:01:35;;;;;;;8.93;3.58;;;12.80;99.90;;;;;;5015153;28;90497;-33
2022/10/16 01:04:01;;;;;;;4.35;3.60;;;12.80;99.90;;;;;;5000311;28;89249;-32
2022/10/16 01:06:32;;;;;;;9.52;3.72;;;12.70;99.90;;;;;;5001661;28;89251;-34
2022/10/16 01:09:22;;;;;;;3.50;2.83;;;12.80;99.90;;;;;;5000595;28;88658;-33
2022/10/16 01:12:04;;;;;;;7.28;4.47;;;12.80;99.90;;;;;;5000595;28;91675;-31
2022/10/16 01:14:36;;;;;;;6.28;4.15;;;12.80;99.90;;;;;;5001088;28;91814;-31
2022/10/16 01:17:07;;;;;;;4.70;3.30;;;12.80;99.90;;;;;;5001483;28;90480;-32
2022/10/16 01:19:57;;;;;;;5.93;3.80;;;12.80;99.90;;;;;;5001136;28;88024;-31
2022/10/16 01:22:30;;;;;;;11.52;4.22;;;12.80;99.90;;;;;;4988813;28;90092;-32
2022/10/16 01:25:00;;;;;;;4.85;4.05;;;12.80;99.90;;;;;;4999365;28;89705;-31
2022/10/16 01:27:28;;;;;;;3.50;3.22;;;12.70;99.90;;;;;;5001411;28;90103;-30
2022/10/16 01:29:59;;;;;;;6.07;3.17;;;12.70;99.90;;;;;;5001223;28;89144;-32
2022/10/16 01:32:37;;;;;;;4.22;3.80;;;12.70;99.90;;;;;;5000872;28;91556;-32
2022/10/16 01:35:21;;;;;;;6.95;4.63;;;12.70;99.90;;;;;;5000189;28;89321;-34
2022/10/16 01:38:12;;;;;;;5.55;3.38;;;12.70;99.90;;;;;;5000167;28;89245;-33
2022/10/16 01:40:43;;;;;;;6.05;4.07;;;12.70;99.90;;;;;;5001059;28;89234;-31
2022/10/16 01:43:13;;;;;;;8.80;3.65;;;12.60;99.90;;;;;;4982040;28;90310;-31
2022/10/16 01:45:41;;;;;;;6.25;3.72;;;12.70;99.90;;;;;;5001183;28;89750;-35
2022/10/16 01:48:09;;;;;;;6.47;3.63;;;12.60;99.90;;;;;;4982890;28;91166;-32
2022/10/16 01:50:39;;;;;;;;;;;12.60;99.90;;;;;;5000647;28;87623;-31
2022/10/16 01:53:08;;;;;;;7.63;4.22;;;12.60;99.90;;;;;;5001420;28;90114;-31
2022/10/16 01:55:41;;;;;;;5.40;4.00;;;12.60;99.90;;;;;;5000134;28;89730;-33
2022/10/16 01:58:08;;;;;;;6.60;3.63;;;12.70;99.90;;;;;;4982977;28;91089;-32
2022/10/16 02:00:37;;;;;;;9.13;4.18;;;12.60;99.90;;;;;;5000103;28;88128;-31
2022/10/16 02:03:05;;;;;;;5.03;3.55;;;12.70;99.90;;;;;;4999499;28;90696;-33
2022/10/16 02:05:38;;;;;;;3.45;3.20;;;12.60;99.90;;;;;;4999199;28;90322;-33
2022/10/16 02:08:04;;;;;;;8.55;4.07;;;12.60;99.90;;;;;;5000482;28;90166;-32
2022/10/16 02:10:30;;;;;;;14.35;4.22;;;12.60;99.90;;;;;;5000560;28;89257;-31
2022/10/16 02:13:10;;;;;;;4.90;4.25;;;12.60;99.90;;;;;;4999871;28;90040;-33
2022/10/16 02:15:35;;;;;;;6.88;3.65;;;12.60;99.90;;;;;;5000449;28;89583;-32
2022/10/16 02:18:04;;;;;;;5.00;3.85;;;12.60;99.90;;;;;;4999803;28;90427;-31
2022/10/16 02:20:34;;;;;;;8.10;3.97;;;12.60;99.90;;;;;;5000403;28;88156;-31
2022/10/16 02:23:01;;;;;;;4.32;3.88;;;12.70;99.90;;;;;;4998905;28;92649;-32
2022/10/16 02:25:31;;;;;;;8.13;3.90;;;12.70;99.90;;;;;;5000374;28;89689;-34
2022/10/16 02:28:03;;;;;;;5.05;3.75;;;12.70;99.90;;;;;;4999826;28;89448;-32
2022/10/16 02:30:52;;;;;;;5.78;3.97;;;12.70;99.90;;;;;;4999507;28;89120;-32
2022/10/16 02:33:21;;;;;;;5.80;4.05;;;12.70;99.90;;;;;;4986943;28;92610;-33
2022/10/16 02:35:48;;;;;;;5.57;4.22;;;12.70;99.90;;;;;;4999711;28;89654;-32
2022/10/16 02:38:15;;;;;;;4.13;3.47;;;12.70;99.90;;;;;;4999555;28;89234;-31
2022/10/16 02:40:42;;;;;;;4.80;3.83;;;12.80;99.90;;;;;;4999871;28;90059;-31
2022/10/16 02:43:08;;;;;;;3.97;2.85;;;12.70;99.90;;;;;;4999769;28;90975;-32
2022/10/16 02:45:34;;;;;;;4.38;3.95;;;12.70;99.90;;;;;;4999833;28;89831;-33
2022/10/16 02:47:59;;;;;;;8.43;4.43;;;12.80;99.90;;;;;;4999471;28;90623;-32
2022/10/16 02:50:25;;;;;;;3.45;3.15;;;12.80;99.90;;;;;;4999764;28;88010;-30
2022/10/16 02:52:51;;;;;;;8.13;3.75;;;12.80;99.90;;;;;;4999542;28;90594;-34
2022/10/16 02:55:16;;;;;;;4.47;4.03;;;12.80;99.90;;;;;;4998865;28;90888;-32
2022/10/16 02:57:42;;;;;;;6.82;3.70;;;12.80;99.90;;;;;;4999227;28;89648;-32
2022/10/16 03:00:11;;;;;;;4.10;3.65;;;12.80;99.90;;;;;;4999677;28;88034;-31
2022/10/16 03:02:37;;;;;;;4.65;3.55;;;12.80;99.90;;;;;;4999675;28;90665;-33
2022/10/16 03:05:03;;;;;;;6.80;4.07;;;12.80;99.90;;;;;;4998880;28;89577;-34
2022/10/16 03:07:28;;;;;;;4.18;3.40;;;12.80;99.90;;;;;;4999938;28;89264;-33
2022/10/16 03:09:55;;;;;;;4.95;3.92;;;12.80;99.90;;;;;;4999562;28;89217;-32
2022/10/16 03:12:21;;;;;;;3.22;2.92;;;12.90;99.90;;;;;;4999521;28;90081;-35
2022/10/16 03:14:46;;;;;;;3.85;3.50;;;12.90;99.90;;;;;;4999104;28;89815;-32
2022/10/16 03:17:12;;;;;;;9.38;4.40;;;12.90;99.90;;;;;;4999476;28;90772;-32
2022/10/16 03:19:38;;;;;;;3.83;2.83;;;12.90;99.90;;;;;;4999640;28;89525;-32
2022/10/16 03:22:04;;;;;;;3.40;3.10;;;12.80;99.90;;;;;;4998462;28;90133;-30
2022/10/16 03:24:29;;;;;;;4.53;3.88;;;12.80;99.90;;;;;;4998974;28;89382;-31
2022/10/16 03:26:55;;;;;;;4.65;3.33;;;12.80;99.90;;;;;;4998329;28;89542;-33
2022/10/16 03:29:21;;;;;;;4.20;3.10;;;12.80;99.90;;;;;;4998908;28;88773;-31
2022/10/16 03:31:48;;;;;;;3.42;3.17;;;12.80;99.90;;;;;;4999492;28;90535;-33
2022/10/16 03:34:13;;;;;;;3.72;2.90;;;12.90;99.90;;;;;;4998972;28;88630;-32
2022/10/16 03:36:39;;;;;;;3.70;3.05;;;12.90;99.90;;;;;;4999251;28;89529;-35
2022/10/16 03:39:05;;;;;;;9.40;4.10;;;13.00;99.90;;;;;;4999246;28;88993;-33
2022/10/16 03:41:30;;;;;;;3.83;3.30;;;13.10;99.90;;;;;;4998610;28;90321;-34
2022/10/16 03:43:56;;;;;;;3.05;2.78;;;13.00;99.90;;;;;;4998012;28;90473;-32
2022/10/16 03:46:21;;;;;;;4.05;3.10;;;13.10;99.90;;;;;;4998816;28;89947;-32
2022/10/16 03:48:47;;;;;;;4.97;3.58;;;13.00;99.90;;;;;;4999050;28;87691;-32
2022/10/16 03:51:12;;;;;;;4.85;3.83;;;13.00;99.90;;;;;;4998580;28;89306;-33
2022/10/16 03:53:38;;;;;;;5.82;3.70;;;13.00;99.90;;;;;;4998566;28;90356;-31
2022/10/16 03:56:04;;;;;;;3.50;3.20;;;13.10;99.90;;;;;;4998509;28;89977;-32
2022/10/16 03:58:29;;;;;;;5.95;4.45;;;13.00;99.90;;;;;;4998717;28;89347;-34
2022/10/16 04:00:55;;;;;;;3.83;3.42;;;13.00;99.90;;;;;;4998976;28;90183;-33
2022/10/16 04:03:21;;;;;;;6.53;3.80;;;13.00;99.90;;;;;;4998246;28;88953;-30
2022/10/16 04:05:46;;;;;;;6.00;4.15;;;12.90;99.90;;;;;;4980690;28;90190;-34
2022/10/16 04:08:12;;;;;;;3.30;3.00;;;12.90;99.90;;;;;;4997841;28;88924;-33
2022/10/16 04:10:38;;;;;;;4.70;3.78;;;13.00;99.90;;;;;;4999237;28;90132;-33
2022/10/16 04:13:03;;;;;;;3.28;3.08;;;12.90;99.90;;;;;;4998180;28;90549;-33
2022/10/16 04:15:29;;;;;;;3.63;3.33;;;12.90;99.90;;;;;;4998251;28;89417;-31
2022/10/16 04:17:54;;;;;;;3.70;2.92;;;13.00;99.90;;;;;;4998918;28;89190;-34
2022/10/16 04:20:20;;;;;;;9.25;4.05;;;12.90;99.90;;;;;;4998181;28;90380;-31
2022/10/16 04:22:46;;;;;;;4.30;3.67;;;13.00;99.90;;;;;;4998515;28;90263;-33
2022/10/16 04:25:12;;;;;;;8.15;4.03;;;12.90;99.90;;;;;;4998046;28;89969;-33
2022/10/16 04:27:38;;;;;;;5.55;3.40;;;12.90;99.90;;;;;;4998152;28;88776;-32
2022/10/16 04:30:04;;;;;;;9.57;4.70;;;13.00;99.90;;;;;;4998259;28;90422;-31
2022/10/16 04:32:30;;;;;;;4.78;4.22;;;12.90;99.90;;;;;;4997651;28;91967;-32
2022/10/16 04:34:55;;;;;;;4.40;4.00;;;12.90;99.90;;;;;;4998280;28;91008;-32
2022/10/16 04:37:25;;;;;;;6.35;4.18;;;12.90;99.90;;;;;;4998528;28;88166;-32
2022/10/16 04:39:52;;;;;;;4.30;3.60;;;12.90;99.90;;;;;;4999380;28;90110;-32
2022/10/16 04:42:17;;;;;;;5.03;4.55;;;12.90;99.90;;;;;;5001388;28;89810;-33
2022/10/16 04:44:43;;;;;;;5.25;4.45;;;12.80;99.90;;;;;;5001746;28;89406;-33
2022/10/16 04:47:09;;;;;;;7.68;5.30;;;12.90;99.90;;;;;;5001672;28;89144;-32
2022/10/16 04:49:34;;;;;;;4.68;3.97;;;12.90;99.90;;;;;;5001802;28;90505;-31
2022/10/16 04:52:00;;;;;;;5.78;4.93;;;12.90;99.90;;;;;;4983301;28;90773;-32
2022/10/16 04:54:25;;;;;;;5.50;5.00;;;12.80;99.90;;;;;;5001688;28;89461;-33
2022/10/16 04:56:51;;;;;;;7.32;5.25;;;12.90;99.90;;;;;;5000486;28;89692;-33
2022/10/16 04:59:18;;;;;;;5.15;4.40;;;12.90;99.90;;;;;;5001027;28;90660;-31
2022/10/16 05:01:44;;;;;;;6.43;4.60;;;12.80;99.90;;;;;;5001786;28;88802;-30
2022/10/16 05:04:10;;;;;;;5.22;3.83;;;12.80;99.90;;;;;;5001254;28;89477;-33
2022/10/16 05:06:38;;;;;;;5.60;4.53;;;12.80;99.90;;;;;;5001492;28;88834;-32
2022/10/16 05:09:07;;;;;;;6.65;3.90;;;12.90;99.90;;;;;;5000993;28;89934;-33
2022/10/16 05:11:33;;;;;;;7.03;4.43;;;12.90;99.90;;;;;;5001684;28;89605;-32
2022/10/16 05:13:59;;;;;;;5.00;4.55;;;12.90;99.90;;;;;;5006024;28;88546;-31
2022/10/16 05:16:24;;;;;;;6.20;4.70;;;12.90;99.90;;;;;;5010851;28;89932;-33
2022/10/16 05:18:51;;;;;;;8.02;4.72;;;12.90;99.90;;;;;;5000877;28;90316;-31
2022/10/16 05:21:17;;;;;;;4.57;4.22;;;12.90;99.90;;;;;;5000869;28;90638;-30
2022/10/16 05:23:43;;;;;;;6.60;4.15;;;13.00;99.90;;;;;;5000739;28;90540;-33
2022/10/16 05:26:08;;;;;;;7.65;4.75;;;13.00;99.90;;;;;;5001526;28;89713;-34
2022/10/16 05:28:34;;;;;;;5.18;4.72;;;12.90;99.90;;;;;;5000481;28;90432;-35
2022/10/16 05:31:08;;;;;;;6.85;5.00;;;12.90;99.90;;;;;;5000950;28;88702;-32
2022/10/16 05:33:34;;;;;;;6.53;4.63;;;12.90;99.90;;;;;;5000593;28;89827;-35
2022/10/16 05:36:08;;;;;;;7.13;5.55;;;12.90;99.90;;;;;;5001393;28;87970;-33
2022/10/16 05:38:35;;;;;;;6.40;4.38;;;12.80;99.90;;;;;;5000592;28;90332;-31
2022/10/16 05:41:01;;;;;;;5.13;4.45;;;12.80;99.90;;;;;;5000431;28;89764;-33
2022/10/16 05:43:28;;;;;;;10.98;5.53;;;12.80;99.90;;;;;;5000412;28;89378;-33
2022/10/16 05:45:58;;;;;;;6.93;4.45;;;12.70;99.90;;;;;;5000397;28;89656;-33
2022/10/16 05:48:24;;;;;;;5.80;5.10;;;12.70;99.90;;;;;;4999625;28;92094;-32
2022/10/16 05:51:00;;;;;;;5.65;4.82;;;12.70;99.90;;;;;;4999812;28;89969;-35
2022/10/16 05:53:28;;;;;;;5.88;4.80;;;12.80;99.90;;;;;;5000614;28;89513;-30
2022/10/16 05:55:55;;;;;;;5.25;4.78;;;12.80;99.90;;;;;;5000480;28;88069;-34
2022/10/16 05:58:21;;;;;;;6.45;4.40;;;12.80;99.90;;;;;;5000021;28;90504;-33
2022/10/16 06:00:54;;;;;;;4.55;3.88;;;12.80;99.90;;;;;;5000236;28;88709;-34
2022/10/16 06:03:20;;;;;;;4.80;3.88;;;12.80;99.90;;;;;;4999515;28;89836;-30
2022/10/16 06:05:45;;;;;;;7.55;4.85;;;12.80;99.90;;;;;;5000347;28;87609;-33
2022/10/16 06:08:11;;;;;;;4.80;4.28;;;12.80;99.90;;;;;;5000005;28;90385;-34
2022/10/16 06:10:37;;;;;;;4.30;3.90;;;12.80;99.90;;;;;;5000468;28;90787;-31
2022/10/16 06:13:02;;;;;;;4.38;3.97;;;12.80;99.90;;;;;;4999775;28;91872;-33
2022/10/16 06:15:29;;;;;;;4.95;3.80;;;12.70;99.90;;;;;;5000594;28;89389;-32
2022/10/16 06:17:55;;;;;;;4.18;3.78;;;12.80;99.90;;;;;;4999864;28;90584;-34
2022/10/16 06:20:20;;;;;;;4.10;3.60;;;12.80;99.90;;;;;;4999767;28;91196;-34
2022/10/16 06:22:46;;;;;;;4.90;4.40;;;12.80;99.90;;;;;;4999971;28;88898;-33
2022/10/16 06:25:11;;;;;;;4.90;3.60;;;12.80;99.90;;;;;;5000041;28;89399;-33
2022/10/16 06:27:40;;;;;;;5.22;4.28;;;12.80;99.90;;;;;;5000220;28;90101;-33
2022/10/16 06:30:06;;;;;;;4.00;3.60;;;12.80;99.90;;;;;;4982797;28;89863;-32
2022/10/16 06:32:32;;;;;;;6.60;3.80;;;12.80;99.90;;;;;;5000475;28;89990;-32
2022/10/16 06:34:57;;;;;;;4.63;4.22;;;12.80;99.90;;;;;;4999327;28;90250;-32
2022/10/16 06:37:24;;;;;;;4.22;2.95;;;12.80;99.90;;;;;;5000512;28;90240;-32
2022/10/16 06:39:52;;;;;;;5.07;3.40;;;12.80;99.90;;;;;;4998901;28;89948;-30
2022/10/16 06:42:18;;;;;;;6.70;2.92;;;12.90;99.90;;;;;;4999689;28;89744;-31
2022/10/16 06:44:44;;;;;;;4.20;3.45;;;12.90;99.90;;;;;;4999798;28;88058;-31
2022/10/16 06:47:10;;;;;;;4.47;4.13;;;12.90;99.90;;;;;;4999172;28;90206;-34
2022/10/16 06:49:35;;;;;;;4.43;3.92;;;13.00;99.90;;;;;;4999577;28;89978;-32
2022/10/16 06:52:01;;;;;;;4.03;3.00;;;13.00;99.90;;;;;;5000382;28;89631;-32
2022/10/16 06:54:27;;;;;;;4.68;3.78;;;13.00;99.90;;;;;;5007393;28;88073;-32
2022/10/16 06:56:54;;;;;;;4.82;3.40;;;13.00;99.90;;;;;;4999207;28;91270;-31
2022/10/16 06:59:20;;;;;;;5.22;3.58;;;13.00;99.90;;;;;;4998564;28;91609;-33
2022/10/16 07:01:46;;;;;;;3.30;3.00;;;13.10;99.90;;;;;;4997909;28;90446;-33
2022/10/16 07:04:12;;;;;;;3.92;3.50;;;13.10;99.90;;;;;;4999521;28;89183;-31
2022/10/16 07:06:37;;;;;;;5.28;3.40;;;13.20;99.90;;;;;;4999005;28;90520;-31
2022/10/16 07:09:05;;;;;;;6.32;3.17;;;13.10;99.90;;;;;;4999392;28;89826;-32
2022/10/16 07:11:31;;;;;;;5.07;3.22;;;13.10;99.90;;;;;;4999462;28;90677;-32
2022/10/16 07:13:57;;;;;;;5.60;3.30;;;13.20;99.90;;;;;;4999124;28;88801;-31
2022/10/16 07:16:25;;;;;;;6.95;3.67;;;13.20;99.90;;;;;;4999695;28;90760;-33
2022/10/16 07:18:52;;;;;;;6.70;3.33;;;13.20;99.90;;;;;;4999672;28;89441;-33
2022/10/16 07:21:20;;;;;;;5.13;3.43;;;13.20;99.90;;;;;;4998907;28;89023;-31
2022/10/16 07:23:50;;;;;;;9.05;3.42;;;13.30;99.90;;;;;;4979690;28;88949;-32
2022/10/16 07:26:16;;;;;;;3.00;2.75;;;13.30;99.90;;;;;;4999408;28;89964;-31
2022/10/16 07:28:43;;;;;;;5.13;3.50;;;13.30;99.90;;;;;;4998640;28;91372;-31
2022/10/16 07:31:11;;;;;;;5.05;2.92;;;13.30;99.90;;;;;;4999622;28;89533;-32
2022/10/16 07:33:38;;;;;;;6.85;3.35;;;13.30;99.90;;;;;;4999402;28;89326;-31
2022/10/16 07:36:04;;;;;;;5.72;3.17;;;13.40;99.90;;;;;;4998277;28;90998;-31
2022/10/16 07:38:30;;;;;;;5.03;3.85;;;13.40;99.90;;;;;;4998089;28;89762;-34
2022/10/16 07:40:58;;;;;;;6.13;3.67;;;13.50;99.90;;;;;;4998070;28;89199;-34
2022/10/16 07:43:23;;;;;;;5.20;3.20;;;13.50;99.90;;;;;;4999056;28;88263;-32
2022/10/16 07:45:49;;;;;;;5.20;3.75;;;13.50;99.90;;;;;;4998930;28;90211;-31
2022/10/16 07:48:16;;;;;;;6.20;2.83;;;13.60;99.90;;;;;;4997386;28;89355;-33
2022/10/16 07:50:42;;;;;;;4.50;3.55;;;13.60;99.90;;;;;;4997944;28;90412;-33
2022/10/16 07:53:08;;;;;;;7.05;3.55;;;13.60;99.90;;;;;;4999675;28;88113;-32
2022/10/16 07:55:34;;;;;;;3.63;3.40;;;13.60;99.90;;;;;;4980398;28;90310;-35
2022/10/16 07:57:59;;;;;;;4.82;2.90;;;13.60;99.90;;;;;;4998399;28;89824;-32
2022/10/16 08:00:25;;;;;;;5.70;4.38;;;13.70;99.90;;;;;;4992087;28;89443;-33
2022/10/16 08:02:51;;;;;;;4.30;3.90;;;13.70;99.90;;;;;;4994864;28;90475;-32
2022/10/16 08:05:16;;;;;;;5.05;4.20;;;13.80;99.90;;;;;;4996739;28;91519;-33
2022/10/16 08:07:42;;;;;;;7.07;3.38;;;13.80;99.90;;;;;;4995549;28;89488;-32
2022/10/16 08:10:17;;;;;;;5.80;3.50;;;13.80;99.90;;;;;;4994664;28;89522;-35
2022/10/16 08:12:42;;;;;;;8.20;4.38;;;13.90;99.90;;;;;;4995159;28;89178;-34
2022/10/16 08:15:09;;;;;;;3.70;3.03;;;13.90;99.90;;;;;;4998195;28;90430;-32
2022/10/16 08:17:34;;;;;;;3.22;2.70;;;13.90;99.90;;;;;;4999260;28;90390;-33
2022/10/16 08:20:00;;;;;;;5.38;2.72;;;14.00;99.90;;;;;;4999078;28;89513;-33
2022/10/16 08:22:25;;;;;;;5.25;2.78;;;14.00;99.90;;;;;;4999303;28;89481;-32
2022/10/16 08:24:51;;;;;;;2.67;2.47;;;14.10;99.90;;;;;;4998227;28;90961;-30
2022/10/16 08:27:16;;;;;;;5.60;2.63;;;14.10;99.90;;;;;;4999779;28;88433;-34
2022/10/16 08:29:42;;;;;;;3.35;2.60;;;14.20;99.90;;;;;;4999281;28;89542;-33
2022/10/16 08:32:08;;;;;;;3.75;2.47;;;14.20;99.90;;;;;;4999302;28;89145;-34
2022/10/16 08:34:33;;;;;;;3.75;2.50;;;14.30;99.90;;;;;;4998774;28;90527;-33
2022/10/16 08:36:59;;;;;;;4.50;2.70;;;14.40;99.90;;;;;;5009367;28;91141;-33
2022/10/16 08:39:25;;;;;;;2.53;2.33;;;14.40;99.90;;;;;;4999100;28;90871;-34
2022/10/16 08:42:10;;;;;;;5.35;1.83;;;14.40;99.90;;;;;;4998849;28;89965;-31
2022/10/16 08:45:03;;;;;;;6.32;2.40;;;14.50;99.90;;;;;;4998280;28;89700;-32
2022/10/16 08:48:04;;;;;;;5.40;2.25;;;14.50;99.90;;;;;;4998959;28;90968;-32
2022/10/16 08:50:32;;;;;;;4.93;2.20;;;14.50;99.90;;;;;;4999141;28;89362;-35
2022/10/16 08:52:58;;;;;;;1.77;1.60;;;14.60;99.90;;;;;;4999320;28;88476;-30
2022/10/16 08:55:48;;;;;;;2.35;2.15;;;14.60;99.90;;;;;;4998437;28;90550;-33
2022/10/16 08:58:16;;;;;;;3.60;2.50;;;14.70;99.90;;;;;;4986576;28;90373;-33
2022/10/16 09:00:43;;;;;;;3.95;2.90;;;14.80;99.90;;;;;;4998369;28;89840;-32
2022/10/16 09:03:43;;;;;;;5.17;2.40;;;14.80;99.90;;;;;;4998759;28;89627;-33
2022/10/16 09:06:24;;;;;;;6.40;2.17;;;14.90;99.90;;;;;;4998529;28;91449;-32
2022/10/16 09:09:14;;;;;;;2.33;2.10;;;14.90;99.90;;;;;;4999009;28;90112;-33
2022/10/16 09:11:54;;;;;;;3.22;1.90;;;14.90;99.90;;;;;;4984888;28;89510;-36
2022/10/16 09:14:56;;;;;;;4.72;2.80;;;15.00;99.90;;;;;;4998479;28;88992;-34
2022/10/16 09:17:42;;;;;;;4.72;2.50;;;15.00;99.90;;;;;;4998978;28;89664;-33
2022/10/16 09:20:27;;;;;;;7.13;2.08;;;15.10;99.90;;;;;;4998371;28;89849;-34
2022/10/16 09:23:14;;;;;;;3.60;2.58;;;15.30;99.90;;;;;;4998287;28;89482;-32
2022/10/16 09:25:43;;;;;;;4.82;2.75;;;15.40;99.90;;;;;;4997570;28;87834;-36
2022/10/16 09:28:09;;;;;;;2.33;1.90;;;15.50;99.90;;;;;;4997734;28;90154;-34
2022/10/16 09:30:35;;;;;;;3.53;1.95;;;15.50;99.90;;;;;;4997816;28;90852;-32
2022/10/16 09:33:01;;;;;;;3.03;1.75;;;15.60;99.90;;;;;;4998333;28;92050;-33
2022/10/16 09:35:42;;;;;;;3.17;2.53;;;15.70;99.90;;;;;;4997881;28;89081;-33
2022/10/16 09:38:08;;;;;;;7.68;2.20;;;15.80;99.90;;;;;;4997726;28;90306;-35
2022/10/16 09:40:39;;;;;;;6.57;2.10;;;15.90;99.90;;;;;;4997822;28;89480;-35
2022/10/16 09:43:29;;;;;;;11.50;2.60;;;15.90;99.90;;;;;;4997991;28;90859;-33
2022/10/16 09:45:58;;;;;;;4.28;2.63;;;15.90;99.90;;;;;;4997734;28;88129;-34
2022/10/16 09:48:31;;;;;;;8.35;2.42;;;16.00;99.90;;;;;;4998135;28;90271;-31
2022/10/16 09:50:59;;;;;;;5.78;2.40;;;16.00;99.90;;;;;;4998483;28;89832;-32
2022/10/16 09:53:40;;;;;;;3.55;1.95;;;16.10;99.90;;;;;;4998268;28;89836;-34
2022/10/16 09:56:06;;;;;;;6.15;2.90;;;16.10;99.90;;;;;;4997905;28;89556;-33
2022/10/16 09:58:33;;;;;;;5.75;2.45;;;16.10;99.90;;;;;;5001022;28;90235;-35
2022/10/16 10:00:59;;;;;;;6.22;2.45;;;16.20;99.90;;;;;;4979325;28;89827;-35
2022/10/16 10:03:40;;;;;;;5.15;2.70;;;16.20;99.90;;;;;;4998464;28;89340;-33
2022/10/16 10:06:24;;;;;;;6.10;2.90;;;16.20;99.90;;;;;;4998828;28;88943;-32
2022/10/16 10:09:31;;;;;;;8.52;3.03;;;16.30;99.90;;;;;;4998170;28;90122;-32
2022/10/16 10:11:58;;;;;;;7.13;3.08;;;16.30;99.90;;;;;;4969828;28;89771;-34
2022/10/16 10:14:44;;;;;;;9.80;2.03;;;16.30;99.90;;;;;;4997248;28;89602;-34
2022/10/16 10:17:16;;;;;;;3.50;2.22;;;16.30;99.90;;;;;;4998802;28;88592;-35
2022/10/16 10:19:50;;;;;;;3.80;2.45;;;16.30;99.90;;;;;;4998162;28;90030;-33
2022/10/16 10:22:31;;;;;;;6.50;2.40;;;16.40;99.90;;;;;;4996896;28;91102;-34
2022/10/16 10:25:07;;;;;;;5.80;2.63;;;16.40;99.90;;;;;;4997719;28;90261;-32
2022/10/16 10:27:37;;;;;;;7.22;2.33;;;16.40;99.90;;;;;;4998229;28;89449;-32
2022/10/16 10:30:20;;;;;;;4.55;1.75;;;16.50;99.90;;;;;;4997862;28;90259;-33
2022/10/16 10:33:17;;;;;;;7.57;2.13;;;16.50;99.90;;;;;;4997683;28;89861;-32
2022/10/16 10:35:49;;;;;;;6.45;2.30;;;16.60;99.90;;;;;;4997539;28;88336;-32
2022/10/16 10:38:33;;;;;;;6.47;2.60;;;16.70;99.90;;;;;;4995728;28;88206;-31
2022/10/16 10:41:16;;;;;;;6.57;2.95;;;16.80;99.90;;;;;;4997953;28;89914;-32
2022/10/16 10:44:16;;;;;;;10.27;3.30;;;16.90;99.90;;;;;;4984675;28;89800;-32
2022/10/16 10:46:49;;;;;;;7.25;2.97;;;16.80;99.90;;;;;;4908502;28;89425;-34
2022/10/16 10:49:49;;;;;;;5.25;2.33;;;16.90;99.90;;;;;;4988395;28;89759;-33
2022/10/16 10:52:50;;;;;;;5.65;1.92;;;16.90;99.90;;;;;;4985119;28;90275;-36
2022/10/16 10:55:39;;;;;;;3.78;2.00;;;16.90;99.90;;;;;;4996690;28;88652;-34
2022/10/16 10:58:16;;;;;;;3.65;2.45;;;17.00;99.90;;;;;;4996995;28;89037;-31
2022/10/16 11:00:57;;;;;;;12.37;3.93;;;16.90;99.90;;;;;;4993904;28;89729;-34
2022/10/16 11:03:41;;;;;;;5.50;2.58;;;16.90;99.90;;;;;;4996764;28;90913;-33
2022/10/16 11:06:39;;;;;;;6.18;2.78;;;16.90;99.90;;;;;;4997299;28;90072;-33
2022/10/16 11:09:24;;;;;;;8.98;2.45;;;16.90;99.90;;;;;;4977497;28;89940;-35
2022/10/16 11:11:58;;;;;;;11.57;2.67;;;16.70;99.90;;;;;;4996720;28;88511;-35
2022/10/16 11:14:40;;;;;;;8.40;2.78;;;16.60;99.90;;;;;;4996846;28;90351;-32
2022/10/16 11:17:21;;;;;;;8.02;3.10;;;16.60;99.90;;;;;;4996473;28;90578;-32
2022/10/16 11:19:58;;;;;;;7.28;2.63;;;16.60;99.90;;;;;;4997183;28;90024;-31
2022/10/16 11:22:34;;;;;;;14.73;3.58;;;16.80;99.90;;;;;;4996766;28;88803;-32
2022/10/16 11:25:04;;;;;;;12.48;2.70;;;17.10;99.90;;;;;;4996131;28;90142;-33
2022/10/16 11:27:40;;;;;;;10.18;2.85;;;17.30;99.90;;;;;;4996474;28;89847;-32
2022/10/16 11:30:21;;;;;;;4.80;2.10;;;17.40;99.90;;;;;;4997639;28;89735;-34
2022/10/16 11:33:08;;;;;;;7.72;2.97;;;17.50;99.90;;;;;;4997185;28;88685;-35
2022/10/16 11:35:57;;;;;;;12.05;2.55;;;17.60;99.90;;;;;;4997056;28;88857;-33
2022/10/16 11:39:04;;;;;;;10.98;4.82;;;17.70;99.90;;;;;;4980617;28;89638;-34
2022/10/16 11:41:44;;;;;;;7.15;3.50;;;17.80;99.90;;;;;;4996693;28;89158;-33
2022/10/16 11:44:22;;;;;;;6.43;3.03;;;17.90;99.90;;;;;;4996247;28;91012;-32
2022/10/16 11:47:18;;;;;;;9.68;2.20;;;17.90;99.90;;;;;;4995932;28;90317;-35
2022/10/16 11:49:46;;;;;;;4.45;2.22;;;17.90;99.90;;;;;;4997215;28;89605;-35
2022/10/16 11:52:17;;;;;;;2.63;2.00;;;17.80;99.90;;;;;;4992365;28;90218;-32
2022/10/16 11:54:54;;;;;;;9.55;2.75;;;17.70;99.90;;;;;;5000040;28;89837;-34
2022/10/16 11:57:27;;;;;;;4.75;2.03;;;17.80;99.90;;;;;;4998870;28;91281;-35
2022/10/16 12:00:06;;;;;;;8.90;2.10;;;17.80;99.90;;;;;;4999397;28;89841;-35
2022/10/16 12:02:52;;;;;;;5.82;2.50;;;17.80;99.90;;;;;;4999950;28;88749;-32
2022/10/16 12:05:48;;;;;;;4.43;2.22;;;17.80;99.90;;;;;;4996400;28;90283;-32
2022/10/16 12:08:15;;;;;;;5.15;2.00;;;17.90;99.90;;;;;;4999650;28;90684;-32
2022/10/16 12:10:44;;;;;;;6.90;2.77;;;17.90;99.90;;;;;;4998973;28;90775;-31
2022/10/16 12:13:34;;;;;;;4.18;2.55;;;17.80;99.90;;;;;;4999686;28;90651;-34
2022/10/16 12:16:12;;;;;;;3.00;2.47;;;17.80;99.90;;;;;;4990926;28;88554;-33
2022/10/16 12:18:38;;;;;;;3.88;2.25;;;18.00;99.90;;;;;;4999129;28;90218;-32
2022/10/16 12:21:06;;;;;;;8.43;3.35;;;17.90;99.90;;;;;;4998898;28;90047;-33
2022/10/16 12:23:36;;;;;;;2.83;1.80;;;17.70;99.90;;;;;;4999463;28;89156;-33
2022/10/16 12:26:02;;;;;;;5.10;2.80;;;17.50;99.90;;;;;;5000023;28;89632;-33
2022/10/16 12:28:31;;;;;;;6.88;2.30;;;17.30;99.90;;;;;;4999532;28;89817;-33
2022/10/16 12:31:00;;;;;;;4.07;1.95;;;17.20;99.90;;;;;;4998974;28;89290;-32
2022/10/16 12:33:29;;;;;;;4.13;2.05;;;17.10;99.90;;;;;;4981441;28;89689;-33
2022/10/16 12:35:56;;;;;;;6.20;2.85;;;17.10;99.90;;;;;;4999027;28;89637;-32
2022/10/16 12:38:27;;;;;;;6.65;1.77;;;17.00;99.90;;;;;;4999225;28;90218;-35
2022/10/16 12:41:03;;;;;;;4.22;1.75;;;17.10;99.90;;;;;;4998134;28;90027;-33
2022/10/16 12:43:32;;;;;;;8.20;2.05;;;17.10;99.90;;;;;;4995025;28;89823;-32
2022/10/16 12:46:10;;;;;;;13.43;2.78;;;17.10;99.90;;;;;;4999781;28;87683;-33
2022/10/16 12:48:37;;;;;;;7.75;2.22;;;17.10;99.90;;;;;;4999530;28;90495;-34
2022/10/16 12:51:24;;;;;;;4.77;2.63;;;17.30;99.90;;;;;;4998067;28;89760;-33
2022/10/16 12:54:02;;;;;;;6.95;3.00;;;17.40;99.90;;;;;;4998154;28;89256;-31
2022/10/16 12:56:36;;;;;;;8.07;2.00;;;17.40;99.90;;;;;;5036666;22;89607;-35
2022/10/16 12:59:39;;;;;;;3.95;2.25;;;17.50;99.90;;;;;;4999350;28;90690;-31
2022/10/16 13:02:26;;;;;;;8.57;2.45;;;17.60;99.90;;;;;;4996649;28;90529;-33
2022/10/16 13:05:03;;;;;;;4.93;2.38;;;17.80;99.90;;;;;;4997766;28;90336;-34
2022/10/16 13:07:36;;;;;;;10.90;3.33;;;17.70;99.90;;;;;;4999461;28;89065;-33